CheckWX is a tool to help pilots better visualize weather data.  It is not intended as a substitute for an official pre-flight weather briefing.

13:54:07 UTC

LFPN METAR
Toussus-le-Noble Airport
Toussus-le-Noble, France
Current

24 mins ago

LFPN 181330Z AUTO 26009KT 230V290 9999 BKN022 BKN027 BKN043 20/15 Q1011 NOSIG
Observed
Aug-18 @ 13:30 UTC
Wind
  • 260° at 9 KTS
Visibility
10,000+ meters
Flight Rules
MVFR
Cloud Levels
  • Broken at 2,200' AGL
  • Broken at 2,700' AGL
  • Broken at 4,300' AGL
Temperature
20°C / 68°F
Dewpoint
15°C / 59°F
Humidity
73%
Altimeter
29.85" Hg
Pressure
1010.92 hPa
Previous

54 mins ago

LFPN 181300Z AUTO 27008KT 9999 SCT021 BKN030 20/15 Q1010 NOSIG
Observed
Aug-18 @ 13:00 UTC
Wind
  • 270° at 8 KTS
Visibility
10,000+ meters
Flight Rules
MVFR
Cloud Levels
  • Scattered at 2,100' AGL
  • Broken at 3,000' AGL
Temperature
20°C / 68°F
Dewpoint
15°C / 59°F
Humidity
73%
Altimeter
29.82" Hg
Pressure
1009.92 hPa
Previous

1 hour ago

LFPN 181230Z AUTO 29010KT 250V310 9999 BKN020 OVC029 18/15 Q1010 NOSIG
Observed
Aug-18 @ 12:30 UTC
Wind
  • 290° at 10 KTS
Visibility
10,000+ meters
Flight Rules
MVFR
Cloud Levels
  • Broken at 2,000' AGL
  • Overcast at 2,900' AGL
Temperature
18°C / 64°F
Dewpoint
15°C / 59°F
Humidity
83%
Altimeter
29.82" Hg
Pressure
1009.92 hPa